Time;durP1;ratioP1;P1;durP2;ratioP2;P2;SDS_P1;SDS_P2;PMS_P1;PMS_P2;Temp;Humidity;BMP_temperature;BMP_pressure;BME280_temperature;BME280_humidity;BME280_pressure;Samples;Min_cycle;Max_cycle;Signal;HPM_P1;HPM_P2
2023/05/16 00:00:19;;;;;;;5.80;3.90;;;11.50;99.90;;;;;;6196680;23;20292;-75
2023/05/16 00:02:45;;;;;;;6.57;4.13;;;11.40;99.90;;;;;;6224752;23;20184;-75
2023/05/16 00:05:13;;;;;;;6.73;3.90;;;11.30;99.90;;;;;;6230939;23;20138;-76
2023/05/16 00:07:41;;;;;;;5.57;3.93;;;11.20;99.90;;;;;;6202831;23;20149;-74
2023/05/16 00:10:07;;;;;;;5.83;3.67;;;11.10;99.90;;;;;;6208753;23;20478;-74
2023/05/16 00:12:35;;;;;;;9.77;4.97;;;11.10;99.90;;;;;;6184118;23;20813;-75
2023/05/16 00:15:05;;;;;;;5.47;4.50;;;11.10;99.90;;;;;;6236144;23;20373;-74
2023/05/16 00:17:31;;;;;;;9.47;5.40;;;11.00;99.90;;;;;;6185644;23;20409;-75
2023/05/16 00:19:57;;;;;;;8.60;5.40;;;11.00;99.90;;;;;;6182887;23;20443;-75
2023/05/16 00:22:26;;;;;;;7.10;5.63;;;10.90;99.90;;;;;;6208156;23;20456;-76
2023/05/16 00:24:52;;;;;;;8.70;5.57;;;10.90;99.90;;;;;;6208233;23;20144;-76
2023/05/16 00:27:17;;;;;;;6.70;5.73;;;10.90;99.90;;;;;;6207456;23;20377;-74
2023/05/16 00:29:43;;;;;;;10.67;5.50;;;10.80;99.90;;;;;;6208568;23;20407;-75
2023/05/16 00:32:09;;;;;;;6.93;5.60;;;10.80;99.90;;;;;;6210189;23;20249;-77
2023/05/16 00:34:35;;;;;;;6.30;5.70;;;10.80;99.90;;;;;;6184620;23;20150;-74
2023/05/16 00:37:01;;;;;;;7.40;6.50;;;10.70;99.90;;;;;;6210714;23;20383;-75
2023/05/16 00:39:27;;;;;;;8.33;6.30;;;10.70;99.90;;;;;;6186099;23;20188;-74
2023/05/16 00:41:56;;;;;;;11.40;7.20;;;10.70;99.90;;;;;;6211684;23;20346;-75
2023/05/16 00:44:22;;;;;;;8.20;6.40;;;10.70;99.90;;;;;;6209190;23;20361;-76
2023/05/16 00:46:48;;;;;;;11.77;7.37;;;10.70;99.90;;;;;;6181821;23;20357;-75
2023/05/16 00:49:14;;;;;;;7.37;6.43;;;10.60;99.90;;;;;;6233901;23;20424;-74
2023/05/16 00:51:40;;;;;;;9.70;6.67;;;10.60;99.90;;;;;;6211195;23;20149;-76
2023/05/16 00:54:06;;;;;;;10.03;8.60;;;10.60;99.90;;;;;;6211354;23;20153;-74
2023/05/16 00:56:33;;;;;;;16.33;11.20;;;10.60;99.90;;;;;;6184629;23;20446;-75
2023/05/16 00:58:59;;;;;;;16.80;12.53;;;10.50;99.90;;;;;;6208013;23;20142;-75
2023/05/16 01:01:27;;;;;;;17.03;15.10;;;10.50;99.90;;;;;;6207193;23;20346;-74
2023/05/16 01:03:53;;;;;;;19.23;14.77;;;10.40;99.90;;;;;;6184070;23;20373;-74
2023/05/16 01:06:19;;;;;;;24.50;17.40;;;10.40;99.90;;;;;;6208699;23;20373;-75
2023/05/16 01:08:45;;;;;;;24.07;18.10;;;10.40;99.90;;;;;;6210285;23;20373;-75
2023/05/16 01:11:21;;;;;;;31.23;19.17;;;10.30;99.90;;;;;;6184008;23;20369;-74
2023/05/16 01:14:02;;;;;;;28.67;19.30;;;10.20;99.90;;;;;;6207471;23;20228;-75
2023/05/16 01:16:39;;;;;;;28.30;17.23;;;10.20;99.90;;;;;;6227694;23;20460;-75
2023/05/16 01:19:04;;;;;;;23.57;15.50;;;10.20;99.90;;;;;;6220354;23;20419;-75
2023/05/16 01:21:47;;;;;;;27.50;18.17;;;10.10;99.90;;;;;;6220301;23;20424;-74
2023/05/16 01:24:18;;;;;;;19.73;14.20;;;10.10;99.90;;;;;;6220967;23;20130;-74
2023/05/16 01:26:45;;;;;;;25.07;17.30;;;10.10;99.90;;;;;;6221412;23;20761;-74
2023/05/16 01:29:11;;;;;;;26.57;17.20;;;10.00;99.90;;;;;;6221398;23;20389;-75
2023/05/16 01:31:37;;;;;;;27.20;15.70;;;10.00;99.90;;;;;;6221690;23;20381;-75
2023/05/16 01:34:03;;;;;;;20.67;14.50;;;10.00;99.90;;;;;;6221214;23;20794;-75
2023/05/16 01:36:56;;;;;;;20.83;13.70;;;10.10;99.90;;;;;;6220432;23;20527;-75
2023/05/16 01:39:32;;;;;;;21.03;14.30;;;10.00;99.90;;;;;;6139149;23;20421;-75
2023/05/16 01:42:06;;;;;;;26.83;17.77;;;10.00;99.90;;;;;;6193639;23;20472;-75
2023/05/16 01:44:34;;;;;;;25.70;17.00;;;9.90;99.90;;;;;;6194085;23;20361;-74
2023/05/16 01:47:05;;;;;;;30.87;19.90;;;9.90;99.90;;;;;;6221001;23;20515;-75
2023/05/16 01:49:39;;;;;;;30.90;20.17;;;9.80;99.90;;;;;;6220367;23;20845;-76
2023/05/16 01:52:26;;;;;;;37.20;23.00;;;9.70;99.90;;;;;;6220745;23;20436;-76
2023/05/16 01:54:56;;;;;;;32.90;22.40;;;9.70;99.90;;;;;;6170067;23;20388;-75
2023/05/16 01:57:25;;;;;;;39.80;24.37;;;9.60;99.90;;;;;;6220370;23;20376;-75
2023/05/16 01:59:52;;;;;;;39.57;23.47;;;9.60;99.90;;;;;;6169062;23;20428;-76
2023/05/16 02:02:18;;;;;;;41.60;24.17;;;9.60;99.90;;;;;;6221183;23;20864;-75
2023/05/16 02:04:44;;;;;;;47.53;27.40;;;9.60;99.90;;;;;;6194876;23;20424;-76
2023/05/16 02:07:13;;;;;;;50.30;26.10;;;9.60;99.90;;;;;;6221162;23;20354;-75
2023/05/16 02:09:39;;;;;;;49.03;27.97;;;9.50;99.90;;;;;;6193401;23;20404;-74
2023/05/16 02:12:06;;;;;;;43.50;25.47;;;9.50;99.90;;;;;;6194134;23;20877;-75
2023/05/16 02:14:31;;;;;;;39.97;23.13;;;9.40;99.90;;;;;;6169086;23;20385;-74
2023/05/16 02:16:57;;;;;;;45.83;24.10;;;9.40;99.90;;;;;;6193743;23;20146;-75
2023/05/16 02:19:23;;;;;;;35.40;22.00;;;9.40;99.90;;;;;;6220087;23;20185;-74
2023/05/16 02:21:49;;;;;;;45.90;24.73;;;9.40;99.90;;;;;;6220193;23;20228;-75
2023/05/16 02:24:15;;;;;;;37.70;21.67;;;9.40;99.90;;;;;;6193967;23;20150;-74
2023/05/16 02:26:40;;;;;;;31.47;19.50;;;9.40;99.90;;;;;;6220732;23;20393;-74
2023/05/16 02:29:06;;;;;;;26.37;17.50;;;9.30;99.90;;;;;;6171163;23;20228;-75
2023/05/16 02:31:33;;;;;;;23.27;13.87;;;9.20;99.90;;;;;;6221202;23;20145;-75
2023/05/16 02:33:59;;;;;;;20.90;11.13;;;9.10;99.90;;;;;;6169545;23;20145;-75
2023/05/16 02:36:25;;;;;;;20.23;9.53;;;9.00;99.90;;;;;;6221353;23;20460;-76
2023/05/16 02:38:51;;;;;;;20.77;8.37;;;8.80;99.90;;;;;;6197326;23;20447;-75
2023/05/16 02:41:17;;;;;;;14.20;9.23;;;8.70;99.90;;;;;;6220380;23;20365;-75
2023/05/16 02:43:43;;;;;;;22.07;8.53;;;8.60;99.90;;;;;;6220475;23;20162;-75
2023/05/16 02:46:32;;;;;;;21.17;9.47;;;8.50;99.90;;;;;;6220422;23;20387;-75
2023/05/16 02:48:58;;;;;;;17.70;9.97;;;8.50;99.90;;;;;;6220223;23;20412;-75
2023/05/16 02:51:26;;;;;;;16.77;7.60;;;8.40;99.90;;;;;;6193297;23;20396;-74
2023/05/16 02:53:52;;;;;;;18.70;9.10;;;8.40;99.90;;;;;;6193947;23;20142;-75
2023/05/16 02:56:19;;;;;;;15.73;8.60;;;8.40;99.90;;;;;;6193164;23;20823;-76
2023/05/16 02:58:49;;;;;;;21.27;8.47;;;8.30;99.90;;;;;;6219109;23;20623;-75
2023/05/16 03:01:16;;;;;;;16.73;8.17;;;8.30;99.90;;;;;;6220533;23;20406;-76
2023/05/16 03:03:41;;;;;;;26.73;10.37;;;8.30;99.90;;;;;;6219835;23;20364;-74
2023/05/16 03:06:07;;;;;;;22.30;11.00;;;8.30;99.90;;;;;;6192986;23;20369;-76
2023/05/16 03:08:34;;;;;;;25.73;12.57;;;8.20;99.90;;;;;;6219618;23;20430;-76
2023/05/16 03:10:59;;;;;;;27.40;12.37;;;8.20;99.90;;;;;;6219444;23;20223;-75
2023/05/16 03:13:25;;;;;;;34.60;13.47;;;8.20;99.90;;;;;;6219367;23;20400;-74
2023/05/16 03:15:51;;;;;;;27.03;13.53;;;8.20;99.90;;;;;;6193120;23;20423;-74
2023/05/16 03:18:17;;;;;;;32.93;14.97;;;8.20;99.90;;;;;;6193083;23;20197;-75
2023/05/16 03:20:42;;;;;;;30.70;15.03;;;8.20;99.90;;;;;;6218948;23;20436;-75
2023/05/16 03:23:08;;;;;;;39.43;18.37;;;8.20;99.90;;;;;;6218876;23;20563;-75
2023/05/16 03:25:36;;;;;;;29.77;15.07;;;8.20;99.90;;;;;;6194623;23;20162;-74
2023/05/16 03:28:02;;;;;;;39.50;17.07;;;8.20;99.90;;;;;;6192037;23;20361;-74
2023/05/16 03:30:28;;;;;;;32.20;15.53;;;8.20;99.90;;;;;;6219514;23;20733;-76
2023/05/16 03:32:54;;;;;;;38.13;14.43;;;8.20;99.90;;;;;;6219579;23;20365;-76
2023/05/16 03:35:20;;;;;;;27.97;15.87;;;8.30;99.90;;;;;;6219129;23;20134;-74
2023/05/16 03:37:45;;;;;;;32.97;16.67;;;8.30;99.90;;;;;;6193023;23;20682;-76
2023/05/16 03:40:11;;;;;;;36.97;15.90;;;8.30;99.90;;;;;;6220222;23;20526;-74
2023/05/16 03:42:37;;;;;;;42.97;18.30;;;8.30;99.90;;;;;;6196470;23;20197;-75
2023/05/16 03:45:05;;;;;;;38.27;16.80;;;8.30;99.90;;;;;;6192605;23;20361;-75
2023/05/16 03:47:31;;;;;;;42.53;19.67;;;8.30;99.90;;;;;;6220745;23;20205;-75
2023/05/16 03:49:57;;;;;;;37.80;17.53;;;8.30;99.90;;;;;;6193431;23;20400;-75
2023/05/16 03:52:22;;;;;;;35.10;17.07;;;8.30;99.90;;;;;;6220711;23;20138;-75
2023/05/16 03:54:48;;;;;;;41.87;18.57;;;8.30;99.90;;;;;;6220747;23;20153;-74
2023/05/16 03:57:14;;;;;;;40.73;17.83;;;8.30;99.90;;;;;;6219945;23;20396;-75
2023/05/16 03:59:39;;;;;;;34.53;15.17;;;8.30;99.90;;;;;;6218889;23;20236;-76
2023/05/16 04:02:05;;;;;;;42.40;18.70;;;8.30;99.90;;;;;;6228938;23;20134;-75
2023/05/16 04:04:31;;;;;;;40.60;15.87;;;8.30;99.90;;;;;;6210785;23;20183;-75
2023/05/16 04:06:56;;;;;;;41.60;17.50;;;8.30;99.90;;;;;;6211919;23;20387;-75
2023/05/16 04:09:22;;;;;;;36.40;17.40;;;8.30;99.90;;;;;;6238745;23;20158;-75
2023/05/16 04:11:48;;;;;;;32.23;14.97;;;8.30;99.90;;;;;;6210959;23;20170;-74
2023/05/16 04:14:14;;;;;;;40.73;15.40;;;8.20;99.90;;;;;;6235370;23;20149;-76
2023/05/16 04:16:40;;;;;;;31.13;14.20;;;8.20;99.90;;;;;;6209011;23;20249;-74
2023/05/16 04:19:06;;;;;;;38.67;16.07;;;8.20;99.90;;;;;;6184926;23;20420;-74
2023/05/16 04:21:32;;;;;;;35.00;16.63;;;8.20;99.90;;;;;;6207353;23;20484;-75
2023/05/16 04:23:58;;;;;;;35.70;15.70;;;8.10;99.90;;;;;;6211176;23;20373;-77
2023/05/16 04:26:24;;;;;;;20.77;12.47;;;8.10;99.90;;;;;;6209565;23;20388;-75
2023/05/16 04:28:50;;;;;;;31.80;15.77;;;8.10;99.90;;;;;;6232603;23;20523;-74
2023/05/16 04:31:16;;;;;;;39.10;15.70;;;8.10;99.90;;;;;;6206857;23;20381;-74
2023/05/16 04:33:41;;;;;;;42.67;16.50;;;8.10;99.90;;;;;;6183121;23;20373;-75
2023/05/16 04:36:07;;;;;;;43.63;16.10;;;8.00;99.90;;;;;;6207609;23;20149;-75
2023/05/16 04:38:34;;;;;;;36.70;15.87;;;7.90;99.90;;;;;;6234204;23;20369;-76
2023/05/16 04:41:00;;;;;;;32.53;14.47;;;8.00;99.90;;;;;;6159145;23;20241;-75
2023/05/16 04:43:26;;;;;;;38.03;15.00;;;7.90;99.90;;;;;;6182189;23;20379;-75
2023/05/16 04:45:57;;;;;;;29.57;11.17;;;7.80;99.90;;;;;;6234203;23;20353;-75
2023/05/16 04:48:27;;;;;;;38.50;10.73;;;7.80;99.90;;;;;;6216627;22;20150;-80
2023/05/16 04:50:52;;;;;;;23.67;8.90;;;7.70;99.90;;;;;;6211350;23;20461;-76
2023/05/16 04:53:18;;;;;;;18.50;9.10;;;7.60;99.90;;;;;;6186302;23;20782;-75
2023/05/16 04:55:44;;;;;;;21.03;7.90;;;7.50;99.90;;;;;;6184328;23;20296;-74
2023/05/16 04:58:10;;;;;;;23.80;9.07;;;7.40;99.90;;;;;;6208264;23;20357;-76
2023/05/16 05:00:36;;;;;;;23.93;9.47;;;7.30;99.90;;;;;;6233918;23;20193;-77
2023/05/16 05:03:03;;;;;;;16.67;8.00;;;7.40;99.90;;;;;;6234049;23;20135;-76
2023/05/16 05:05:29;;;;;;;22.23;6.87;;;7.40;99.90;;;;;;6207056;23;20361;-75
2023/05/16 05:07:54;;;;;;;22.20;7.57;;;7.40;99.90;;;;;;6206681;23;20376;-77
2023/05/16 05:10:20;;;;;;;27.07;8.30;;;7.30;99.90;;;;;;6182249;23;20169;-76
2023/05/16 05:12:46;;;;;;;20.93;7.00;;;7.30;99.90;;;;;;6161360;23;20154;-76
2023/05/16 05:15:12;;;;;;;22.43;8.00;;;7.30;99.90;;;;;;6209380;23;20357;-76
2023/05/16 05:17:38;;;;;;;20.60;7.80;;;7.50;99.90;;;;;;6207798;23;20138;-75
2023/05/16 05:20:07;;;;;;;29.90;8.70;;;7.70;99.90;;;;;;6205294;23;20464;-74
2023/05/16 05:22:33;;;;;;;31.20;8.07;;;8.00;99.90;;;;;;6207887;23;20190;-75
2023/05/16 05:24:59;;;;;;;24.03;9.03;;;8.10;99.90;;;;;;6209813;23;20388;-76
2023/05/16 05:27:26;;;;;;;19.57;9.90;;;8.30;99.90;;;;;;6185316;23;20130;-74
2023/05/16 05:29:51;;;;;;;22.30;8.03;;;8.40;99.90;;;;;;6212077;23;20373;-77
2023/05/16 05:32:17;;;;;;;22.20;7.37;;;8.50;99.90;;;;;;6212856;23;20373;-76
2023/05/16 05:34:51;;;;;;;20.83;7.50;;;8.50;99.90;;;;;;6213334;23;20169;-77
2023/05/16 05:37:18;;;;;;;21.23;5.90;;;8.60;99.90;;;;;;6164039;23;20179;-78
2023/05/16 05:39:45;;;;;;;26.77;7.83;;;8.40;99.90;;;;;;6153842;23;20422;-75
2023/05/16 05:42:11;;;;;;;13.30;5.00;;;8.40;99.90;;;;;;6152006;23;20390;-76
2023/05/16 05:44:37;;;;;;;31.50;7.03;;;8.30;99.90;;;;;;6126321;23;20143;-78
2023/05/16 05:47:06;;;;;;;17.33;4.70;;;8.40;99.90;;;;;;6126383;23;20150;-75
2023/05/16 05:49:33;;;;;;;26.47;6.27;;;8.50;99.90;;;;;;6153195;23;20385;-79
2023/05/16 05:51:58;;;;;;;27.30;5.60;;;8.50;99.90;;;;;;6129471;23;20351;-77
2023/05/16 05:54:24;;;;;;;19.90;5.00;;;8.60;99.90;;;;;;6151406;23;20393;-77
2023/05/16 05:56:50;;;;;;;28.43;4.73;;;8.60;99.90;;;;;;6177393;23;20463;-78
2023/05/16 05:59:16;;;;;;;15.50;5.67;;;8.60;99.90;;;;;;6149621;23;20402;-76
2023/05/16 06:01:43;;;;;;;22.00;4.90;;;8.70;99.90;;;;;;6150612;23;20137;-76
2023/05/16 06:04:10;;;;;;;14.33;4.73;;;8.80;99.90;;;;;;6176205;23;20216;-79
2023/05/16 06:06:36;;;;;;;14.60;5.13;;;8.80;99.90;;;;;;6151026;23;20414;-79
2023/05/16 06:09:02;;;;;;;22.30;4.50;;;8.90;99.90;;;;;;6150768;23;20439;-76
2023/05/16 06:11:29;;;;;;;11.30;4.37;;;9.00;99.90;;;;;;6121925;23;20476;-76
2023/05/16 06:13:54;;;;;;;22.30;3.40;;;9.20;99.90;;;;;;6121015;23;20380;-79
2023/05/16 06:16:24;;;;;;;16.87;2.90;;;9.40;99.90;;;;;;6145714;23;20438;-79
2023/05/16 06:18:50;;;;;;;13.13;4.07;;;9.90;99.90;;;;;;6119909;23;20353;-78
2023/05/16 06:21:15;;;;;;;13.13;3.53;;;10.00;99.90;;;;;;6123658;23;20483;-77
2023/05/16 06:23:41;;;;;;;7.97;2.57;;;10.20;99.90;;;;;;6123186;23;20147;-77
2023/05/16 06:26:07;;;;;;;13.10;3.23;;;10.30;99.90;;;;;;6096593;23;20172;-77
2023/05/16 06:28:33;;;;;;;7.47;2.47;;;10.40;99.90;;;;;;6094274;23;20281;-76
2023/05/16 06:30:59;;;;;;;7.27;2.20;;;10.70;99.90;;;;;;6118536;23;20199;-79
2023/05/16 06:33:27;;;;;;;11.90;3.40;;;11.20;99.90;;;;;;6096002;23;20363;-80
2023/05/16 06:35:52;;;;;;;18.73;3.67;;;11.70;99.90;;;;;;6120572;23;20167;-78
2023/05/16 06:38:24;;;;;;;11.67;2.40;;;12.00;99.90;;;;;;6120290;23;20403;-77
2023/05/16 06:40:52;;;;;;;10.93;2.57;;;12.50;99.90;;;;;;6094972;23;20431;-76
2023/05/16 06:43:20;;;;;;;12.17;2.20;;;12.90;98.30;;;;;;6192433;23;20362;-78
2023/05/16 06:45:46;;;;;;;10.07;2.70;;;12.90;97.60;;;;;;6205680;23;20388;-79
2023/05/16 06:48:17;;;;;;;7.73;2.30;;;13.10;91.70;;;;;;6181573;23;20402;-79
2023/05/16 06:50:51;;;;;;;8.23;2.20;;;13.20;84.40;;;;;;6158447;23;20189;-77
2023/05/16 06:53:23;;;;;;;4.97;2.13;;;13.20;76.00;;;;;;6181559;23;20374;-78
2023/05/16 06:55:50;;;;;;;5.90;1.73;;;12.90;78.70;;;;;;6208436;23;20450;-79
2023/05/16 06:58:17;;;;;;;6.10;1.80;;;12.70;79.00;;;;;;6158192;23;20412;-78
2023/05/16 07:00:43;;;;;;;8.27;2.23;;;12.50;88.10;;;;;;6181880;23;20426;-78
2023/05/16 07:03:09;;;;;;;9.10;2.40;;;12.70;80.80;;;;;;6181067;23;20151;-77
2023/05/16 07:05:35;;;;;;;10.03;1.90;;;12.90;82.50;;;;;;6199850;23;20398;-75
2023/05/16 07:08:01;;;;;;;6.47;2.20;;;13.00;77.00;;;;;;6199258;23;20354;-78
2023/05/16 07:10:30;;;;;;;8.50;2.30;;;13.30;79.80;;;;;;6202048;23;20397;-76
2023/05/16 07:13:00;;;;;;;5.47;2.17;;;13.40;73.90;;;;;;6175194;23;20445;-79
2023/05/16 07:15:30;;;;;;;10.00;2.20;;;13.40;67.70;;;;;;6156860;23;20370;-77
2023/05/16 07:17:57;;;;;;;6.60;1.93;;;13.30;67.50;;;;;;6183399;23;20393;-77
2023/05/16 07:20:30;;;;;;;11.13;2.03;;;13.00;67.90;;;;;;6184954;23;20442;-79
2023/05/16 07:22:58;;;;;;;12.10;2.67;;;12.80;72.20;;;;;;6208990;23;20499;-80
2023/05/16 07:25:25;;;;;;;10.73;2.33;;;12.70;71.40;;;;;;6158166;23;20358;-79
2023/05/16 07:27:56;;;;;;;6.37;1.80;;;12.70;76.40;;;;;;6209843;23;20433;-79
2023/05/16 07:30:28;;;;;;;13.10;2.80;;;12.70;69.50;;;;;;6183006;23;20386;-78
2023/05/16 07:32:56;;;;;;;9.53;2.60;;;12.60;68.60;;;;;;6181750;23;20382;-78
2023/05/16 07:35:23;;;;;;;14.17;2.53;;;12.50;66.90;;;;;;6209869;23;20382;-79
2023/05/16 07:38:30;;;;;;;4.23;1.90;;;12.50;68.50;;;;;;6185968;23;20366;-81
2023/05/16 07:43:35;;;;;;;6.40;2.13;;;12.60;64.60;;;;;;6207794;23;20428;-79
2023/05/16 07:46:28;;;;;;;7.80;1.73;;;12.80;61.20;;;;;;6138594;23;20378;-80
2023/05/16 07:49:02;;;;;;;4.57;1.80;;;12.80;59.50;;;;;;6170241;23;20444;-80
2023/05/16 07:51:29;;;;;;;8.60;1.70;;;12.90;61.10;;;;;;6188136;23;20392;-77
2023/05/16 07:53:56;;;;;;;9.93;2.10;;;12.90;60.50;;;;;;6189094;23;20397;-78
2023/05/16 07:56:23;;;;;;;5.40;2.00;;;13.00;59.80;;;;;;6188768;23;20370;-78
2023/05/16 08:01:39;;;;;;;12.20;3.70;;;13.20;59.10;;;;;;6243690;22;20753;-80
2023/05/16 08:04:14;;;;;;;11.50;3.30;;;13.30;62.80;;;;;;6218761;23;20349;-80
2023/05/16 08:07:03;;;;;;;11.33;3.87;;;13.40;61.70;;;;;;6222741;23;20384;-78
2023/05/16 08:09:37;;;;;;;12.93;3.80;;;13.50;64.70;;;;;;6169253;23;20424;-80
2023/05/16 08:12:06;;;;;;;9.90;2.70;;;13.60;64.40;;;;;;6217982;23;20377;-79
2023/05/16 08:14:37;;;;;;;8.30;3.10;;;13.70;63.90;;;;;;6171447;22;20420;-79
2023/05/16 08:17:05;;;;;;;7.90;3.43;;;13.90;60.40;;;;;;6243360;22;20770;-78
2023/05/16 08:19:31;;;;;;;8.60;3.27;;;13.70;59.10;;;;;;6217873;23;20421;-78
2023/05/16 08:21:58;;;;;;;7.70;3.13;;;13.50;59.00;;;;;;6193680;23;20408;-78
2023/05/16 08:24:30;;;;;;;15.00;4.40;;;13.30;57.80;;;;;;6219673;22;20365;-78
2023/05/16 08:27:00;;;;;;;6.27;2.67;;;13.20;59.40;;;;;;6169947;23;20377;-77
2023/05/16 08:29:27;;;;;;;6.50;3.10;;;13.30;59.00;;;;;;6194354;23;20393;-78
2023/05/16 08:31:56;;;;;;;11.83;3.37;;;13.30;57.80;;;;;;6195196;23;20377;-79
2023/05/16 08:34:24;;;;;;;9.27;3.30;;;13.40;58.40;;;;;;6218573;23;20352;-79
2023/05/16 08:36:53;;;;;;;9.47;3.00;;;13.30;58.20;;;;;;6243308;23;20357;-79
2023/05/16 08:39:39;;;;;;;14.60;4.23;;;13.40;59.30;;;;;;6181135;23;20436;-80
2023/05/16 08:42:08;;;;;;;9.87;3.73;;;13.40;58.70;;;;;;6192732;23;20373;-80
2023/05/16 08:44:35;;;;;;;9.30;3.20;;;13.50;59.10;;;;;;6109691;23;20371;-78
2023/05/16 08:47:24;;;;;;;13.00;3.20;;;13.40;58.60;;;;;;6158323;23;20378;-79
2023/05/16 08:49:58;;;;;;;4.13;2.17;;;13.20;58.70;;;;;;6131493;23;20437;-79
2023/05/16 08:52:30;;;;;;;9.10;2.37;;;13.00;57.50;;;;;;6151049;23;20371;-77
2023/05/16 08:55:10;;;;;;;7.53;2.97;;;12.90;57.40;;;;;;6154729;23;20366;-80
2023/05/16 08:57:36;;;;;;;8.57;2.30;;;12.90;57.60;;;;;;6155305;23;20367;-77
2023/05/16 09:00:10;;;;;;;7.80;3.00;;;13.20;56.00;;;;;;6128089;23;20504;-77
2023/05/16 09:02:40;;;;;;;6.03;2.50;;;13.30;56.20;;;;;;6155734;23;20439;-79
2023/05/16 09:05:10;;;;;;;9.93;2.30;;;13.60;55.60;;;;;;6155620;23;20387;-79
2023/05/16 09:07:36;;;;;;;6.67;2.07;;;13.60;54.00;;;;;;6128640;23;20378;-80
2023/05/16 09:10:04;;;;;;;8.43;3.27;;;13.50;53.60;;;;;;6092139;23;20401;-80
2023/05/16 09:12:50;;;;;;;5.73;2.17;;;13.40;53.00;;;;;;6090653;23;20456;-76
2023/05/16 09:15:18;;;;;;;6.63;2.30;;;13.40;52.80;;;;;;6058387;23;20732;-77
2023/05/16 09:17:45;;;;;;;6.77;2.67;;;13.60;53.40;;;;;;6033893;23;20377;-76
2023/05/16 09:20:19;;;;;;;6.33;2.50;;;13.60;52.60;;;;;;6062276;23;20425;-80
2023/05/16 09:22:55;;;;;;;9.27;2.47;;;13.60;52.90;;;;;;6114306;23;20380;-80
2023/05/16 09:25:23;;;;;;;8.10;2.63;;;13.90;53.10;;;;;;6145082;23;20376;-78
2023/05/16 09:27:56;;;;;;;6.83;2.47;;;14.30;52.80;;;;;;6146967;23;20666;-80
2023/05/16 09:31:01;;;;;;;13.13;2.90;;;14.50;51.80;;;;;;6126542;23;20479;-84
2023/05/16 11:56:51;;;;;;;5.10;2.00;;;17.00;43.20;;;;;;6235118;22;20463;-80
2023/05/16 11:59:22;;;;;;;4.10;2.10;;;16.90;44.10;;;;;;6144606;22;20423;-82
2023/05/16 12:01:58;;;;;;;5.87;2.33;;;16.80;43.70;;;;;;6196337;23;20388;-80
2023/05/16 12:04:39;;;;;;;7.80;2.77;;;16.70;43.50;;;;;;6159042;23;20445;-80
2023/05/16 12:07:45;;;;;;;11.77;2.33;;;16.70;43.80;;;;;;6207735;23;20440;-79
2023/05/16 12:10:35;;;;;;;5.70;1.80;;;16.50;44.10;;;;;;6194129;23;20401;-82
2023/05/16 12:13:13;;;;;;;3.37;1.63;;;16.30;44.20;;;;;;6217889;23;20381;-82
2023/05/16 12:21:38;;;;;;;3.83;1.60;;;15.60;45.40;;;;;;6236500;22;20481;-79
2023/05/16 12:24:22;;;;;;;5.53;1.87;;;15.40;46.20;;;;;;6167275;22;20428;-81
2023/05/16 12:44:45;;;;;;;3.20;1.20;;;16.00;44.60;;;;;;6240598;22;20466;-81
2023/05/16 13:30:03;;;;;;;4.40;1.00;;;15.50;47.10;;;;;;6235958;22;20456;-79
2023/05/16 13:38:42;;;;;;;3.77;1.20;;;15.70;45.40;;;;;;6243007;23;20444;-83
2023/05/16 14:01:43;;;;;;;2.60;0.97;;;16.40;41.70;;;;;;6241822;22;20477;-81
2023/05/16 14:04:34;;;;;;;4.90;1.43;;;16.50;40.50;;;;;;6193031;23;20367;-80
2023/05/16 14:07:05;;;;;;;6.10;1.50;;;16.60;41.80;;;;;;6197867;22;20383;-80
2023/05/16 14:09:52;;;;;;;2.70;1.47;;;16.60;42.00;;;;;;6119114;23;20431;-78
2023/05/16 14:12:20;;;;;;;4.60;1.80;;;16.70;41.90;;;;;;6216722;23;20374;-79
2023/05/16 14:14:50;;;;;;;3.30;1.13;;;16.80;39.80;;;;;;6167725;23;20397;-80
2023/05/16 14:17:21;;;;;;;6.13;1.83;;;16.90;39.20;;;;;;6166733;23;20368;-80
2023/05/16 15:59:53;;;;;;;4.00;1.83;;;15.90;43.70;;;;;;6231874;22;20494;-82
2023/05/16 16:44:07;;;;;;;4.13;2.03;;;16.20;43.60;;;;;;6246482;22;20528;-81
2023/05/16 16:46:59;;;;;;;4.60;2.40;;;16.00;44.30;;;;;;6224882;22;20373;-81
2023/05/16 16:59:37;;;;;;;5.30;2.60;;;15.30;46.50;;;;;;6241885;22;20451;-81
2023/05/16 17:02:05;;;;;;;4.77;2.00;;;15.30;46.80;;;;;;6194728;22;20406;-81
2023/05/16 17:04:33;;;;;;;5.23;2.43;;;15.20;46.50;;;;;;6194333;23;20367;-81
2023/05/16 17:17:17;;;;;;;8.67;2.40;;;14.90;47.60;;;;;;6242609;22;20464;-80
2023/05/16 17:22:53;;;;;;;8.50;2.53;;;14.80;48.80;;;;;;6241542;22;20499;-80
2023/05/16 17:25:21;;;;;;;10.43;2.40;;;14.70;49.50;;;;;;6211028;23;20390;-81
2023/05/16 17:27:50;;;;;;;7.27;2.53;;;14.50;50.10;;;;;;6217741;23;20405;-80
2023/05/16 17:36:13;;;;;;;7.30;2.23;;;14.30;50.10;;;;;;6231516;22;20428;-79
2023/05/16 17:41:37;;;;;;;4.63;2.40;;;14.10;50.00;;;;;;6241187;22;20492;-80
2023/05/16 17:44:05;;;;;;;4.90;2.40;;;14.00;50.60;;;;;;6192700;23;20376;-82
2023/05/16 17:46:37;;;;;;;3.73;2.20;;;13.90;50.60;;;;;;6144562;23;20404;-78
2023/05/16 17:49:06;;;;;;;7.33;2.40;;;13.90;50.60;;;;;;6218682;23;20375;-79
2023/05/16 17:51:57;;;;;;;5.90;3.00;;;13.90;50.40;;;;;;6169394;23;20393;-80
2023/05/16 17:54:29;;;;;;;5.77;2.30;;;13.80;50.50;;;;;;6192463;23;20396;-80
2023/05/16 17:57:16;;;;;;;7.23;2.50;;;13.70;50.80;;;;;;6193847;23;20369;-80
2023/05/16 17:59:47;;;;;;;8.60;2.67;;;13.60;51.20;;;;;;6242489;22;20433;-81
2023/05/16 18:02:17;;;;;;;13.40;7.77;;;13.60;51.40;;;;;;6191819;23;20388;-81
2023/05/16 18:05:05;;;;;;;53.13;25.47;;;13.60;51.70;;;;;;6169890;23;20368;-79
2023/05/16 18:07:32;;;;;;;10.80;4.70;;;13.50;51.80;;;;;;6215768;23;20392;-80
2023/05/16 18:10:01;;;;;;;6.53;3.40;;;13.50;51.90;;;;;;6217902;23;20436;-79
2023/05/16 18:12:40;;;;;;;3.97;2.67;;;13.50;52.00;;;;;;6216676;22;20366;-80
2023/05/16 18:15:09;;;;;;;7.37;3.57;;;13.40;52.10;;;;;;6167053;23;20373;-79
2023/05/16 18:17:38;;;;;;;2.90;2.33;;;13.40;52.30;;;;;;6216191;23;20443;-79
2023/05/16 18:20:10;;;;;;;6.33;2.80;;;13.40;52.50;;;;;;6216570;22;20516;-79
2023/05/16 18:23:02;;;;;;;5.83;2.50;;;13.40;52.50;;;;;;6195023;23;20365;-79
2023/05/16 18:28:20;;;;;;;5.43;3.17;;;13.30;53.10;;;;;;6242455;23;20476;-81
2023/05/16 18:30:49;;;;;;;7.27;2.43;;;13.20;53.50;;;;;;6191293;23;20404;-78
2023/05/16 18:33:15;;;;;;;8.50;2.80;;;13.20;53.70;;;;;;6191321;23;20387;-80
2023/05/16 18:35:44;;;;;;;5.70;2.20;;;13.30;53.90;;;;;;6192134;23;20440;-80
2023/05/16 18:38:13;;;;;;;8.50;3.07;;;13.20;54.10;;;;;;6167310;23;20377;-79
2023/05/16 18:40:40;;;;;;;5.40;2.47;;;13.20;54.60;;;;;;6193227;23;20417;-79
2023/05/16 18:43:08;;;;;;;4.80;2.60;;;13.20;54.80;;;;;;6168572;22;20381;-81
2023/05/16 18:45:50;;;;;;;7.50;2.73;;;13.10;55.00;;;;;;6186022;23;20393;-77
2023/05/16 18:48:17;;;;;;;10.33;3.40;;;13.00;56.00;;;;;;6211037;23;20457;-78
2023/05/16 18:50:49;;;;;;;4.73;2.57;;;13.00;55.70;;;;;;6211464;23;20409;-78
2023/05/16 18:53:25;;;;;;;13.57;2.63;;;13.00;55.80;;;;;;6187153;23;20377;-77
2023/05/16 18:55:54;;;;;;;7.97;2.83;;;13.00;56.00;;;;;;6185113;23;20440;-79
2023/05/16 18:58:20;;;;;;;7.47;2.87;;;13.00;55.90;;;;;;6186607;23;20382;-79
2023/05/16 19:00:48;;;;;;;4.27;2.10;;;13.00;55.90;;;;;;6111662;23;20436;-80
2023/05/16 19:03:22;;;;;;;5.03;2.20;;;13.00;55.40;;;;;;6160588;23;20385;-79
2023/05/16 19:05:50;;;;;;;4.20;2.13;;;12.90;55.40;;;;;;6137300;23;20394;-80
2023/05/16 19:08:15;;;;;;;4.37;2.33;;;13.00;55.50;;;;;;6161840;23;20406;-80
2023/05/16 19:10:43;;;;;;;5.23;2.20;;;12.90;55.50;;;;;;6185284;23;20421;-79
2023/05/16 19:13:26;;;;;;;6.23;2.27;;;12.90;55.40;;;;;;6162307;23;20170;-79
2023/05/16 19:15:56;;;;;;;2.80;1.63;;;12.90;55.50;;;;;;6195757;23;20433;-78
2023/05/16 19:18:22;;;;;;;6.60;2.60;;;12.80;55.90;;;;;;6215325;23;20380;-79
2023/05/16 19:20:49;;;;;;;6.83;2.80;;;12.80;56.30;;;;;;6191139;23;20177;-77
2023/05/16 19:23:16;;;;;;;6.40;2.80;;;12.80;56.10;;;;;;6192071;23;20361;-78
2023/05/16 19:25:47;;;;;;;6.47;2.13;;;12.70;56.40;;;;;;6242478;22;20397;-81
2023/05/16 19:28:16;;;;;;;4.67;2.30;;;12.70;56.50;;;;;;6187752;23;20751;-80
2023/05/16 19:30:45;;;;;;;6.63;2.20;;;12.70;56.70;;;;;;6211615;23;20398;-79
2023/05/16 19:33:12;;;;;;;3.63;1.70;;;12.60;56.90;;;;;;6161614;23;20394;-80
2023/05/16 19:35:46;;;;;;;6.40;3.80;;;12.60;57.20;;;;;;6210826;23;20359;-77
2023/05/16 19:38:18;;;;;;;4.23;1.97;;;12.60;57.30;;;;;;6163724;23;20411;-78
2023/05/16 19:41:03;;;;;;;5.70;1.90;;;12.50;57.30;;;;;;6187981;23;20433;-78
2023/05/16 19:43:35;;;;;;;9.80;2.37;;;12.60;57.70;;;;;;6165039;23;20457;-79
2023/05/16 19:46:35;;;;;;;5.90;2.47;;;12.50;58.00;;;;;;6204815;23;20450;-79
2023/05/16 19:49:02;;;;;;;5.33;1.90;;;12.50;58.50;;;;;;6217678;23;20794;-79
2023/05/16 19:51:28;;;;;;;5.83;2.53;;;12.50;58.80;;;;;;6193568;23;20423;-78
2023/05/16 19:53:58;;;;;;;8.53;2.40;;;12.40;59.20;;;;;;6193175;23;20372;-78